EGUN - Mildenhall Royal AFB
Distance from station: E 5mi, 14km
Updated: 10/17/2017 11:56pm
Overcast
Overcast
 Wind from NE
Wind: NE 8 mph , 13 km/h
Temperature: 50°F , 10°C
Wind Chill: 47°F , 8°C
Dew Point: 50°F , 10°C
Humidity: 100%
Barometer: 29.92 inHg , 1013.2 hPa
Clouds: Overcast
Visibility: 6 miles , 10 km
Cloud details: Overcast 3000 ft
2017/10/18 06:56 EGUN 180656Z AUTO 05007KT 9999 OVC030 10/10 A2992 RMK AO2 SLP135 T00990099 $